Time;durP1;ratioP1;P1;durP2;ratioP2;P2;SDS_P1;SDS_P2;PMS_P1;PMS_P2;Temp;Humidity;BMP_temperature;BMP_pressure;BME280_temperature;BME280_humidity;BME280_pressure;Samples;Min_cycle;Max_cycle;Signal;HPM_P1;HPM_P2
2022/05/10 00:00:08;;;;;;;10.70;9.70;;;;;;;12.71;97.65;101276.94;698080;28;1134;-43
2022/05/10 00:00:34;;;;;;;10.32;9.20;;;;;;;12.73;97.16;101271.69;701550;28;1078;-43
2022/05/10 00:00:58;;;;;;;10.23;9.20;;;;;;;12.74;97.44;101279.53;699499;28;4549;-44
2022/05/10 00:01:31;;;;;;;10.40;9.45;;;;;;;12.69;98.66;101280.44;700884;28;1051;-43
2022/05/10 00:01:52;;;;;;;10.63;9.63;;;;;;;12.66;99.34;101275.22;701652;27;991;-44
2022/05/10 00:02:14;;;;;;;10.60;9.60;;;;;;;12.64;99.51;101275.22;701280;28;1272;-45
2022/05/10 00:02:35;;;;;;;10.88;9.88;;;;;;;12.62;99.13;101274.34;701099;28;1141;-44
2022/05/10 00:02:59;;;;;;;10.90;9.90;;;;;;;12.59;99.86;101275.22;700945;28;1046;-43
2022/05/10 00:03:21;;;;;;;10.60;9.60;;;;;;;12.59;98.77;101272.59;700852;28;1051;-43
2022/05/10 00:03:41;;;;;;;10.50;9.50;;;;;;;12.62;98.12;101270.84;700798;28;1279;-44
2022/05/10 00:04:03;;;;;;;10.52;9.52;;;;;;;12.62;99.09;101276.09;699211;28;4388;-45
2022/05/10 00:04:24;;;;;;;10.45;9.35;;;;;;;12.64;98.11;101274.34;700930;28;1110;-44
2022/05/10 00:04:49;;;;;;;10.23;9.23;;;;;;;12.67;98.03;101264.72;700692;28;1225;-45
2022/05/10 00:05:10;;;;;;;11.13;10.02;;;;;;;12.60;98.48;101269.09;701268;28;1259;-43
2022/05/10 00:05:36;;;;;;;10.95;9.88;;;;;;;12.60;98.61;101274.34;701167;28;1280;-43
2022/05/10 00:05:56;;;;;;;10.55;9.52;;;;;;;12.54;99.17;101266.50;697634;28;1202;-43
2022/05/10 00:06:17;;;;;;;11.10;10.00;;;;;;;12.51;99.86;101271.75;699750;28;1094;-44
2022/05/10 00:06:42;;;;;;;11.13;10.03;;;;;;;12.51;100.00;101270.88;700435;28;1109;-43
2022/05/10 00:07:02;;;;;;;11.15;10.05;;;;;;;12.49;99.84;101275.25;700302;28;4717;-44
2022/05/10 00:07:32;;;;;;;11.23;10.13;;;;;;;12.50;99.75;101274.38;700499;28;1332;-44
2022/05/10 00:07:53;;;;;;;11.00;10.00;;;;;;;12.48;99.04;101270.91;701753;27;942;-43
2022/05/10 00:08:16;;;;;;;10.55;9.52;;;;;;;12.49;99.54;101277.88;701887;27;1125;-43
2022/05/10 00:08:38;;;;;;;10.50;9.40;;;;;;;12.47;99.60;101277.88;701485;28;1090;-44
2022/05/10 00:08:59;;;;;;;11.32;10.18;;;;;;;12.48;98.96;101274.38;699581;28;946;-43
2022/05/10 00:09:22;;;;;;;11.00;9.90;;;;;;;12.50;99.21;101279.63;697627;28;1075;-43
2022/05/10 00:09:43;;;;;;;10.98;9.82;;;;;;;12.47;99.17;101271.78;697768;28;1070;-43
2022/05/10 00:10:07;;;;;;;10.88;9.80;;;;;;;12.52;98.29;101280.50;697527;28;4555;-43
2022/05/10 00:10:27;;;;;;;10.40;9.40;;;;;;;12.51;99.29;101274.38;698333;28;1139;-43
2022/05/10 00:10:48;;;;;;;10.15;9.15;;;;;;;12.54;98.58;101281.38;695803;28;1082;-44
2022/05/10 00:11:09;;;;;;;10.38;9.13;;;;;;;12.57;97.45;101284.84;697080;28;1241;-43
2022/05/10 00:11:30;;;;;;;10.80;9.70;;;;;;;12.56;98.41;101277.88;695873;28;1312;-44
2022/05/10 00:11:50;;;;;;;10.60;9.60;;;;;;;12.57;98.61;101271.75;696560;28;959;-44
2022/05/10 00:12:11;;;;;;;10.60;9.60;;;;;;;12.55;99.61;101275.25;693009;28;1348;-44
2022/05/10 00:12:31;;;;;;;11.27;10.17;;;;;;;12.55;99.82;101278.72;694648;28;1311;-44
2022/05/10 00:12:52;;;;;;;11.35;10.20;;;;;;;12.54;99.70;101276.97;693520;28;1167;-43
2022/05/10 00:13:13;;;;;;;11.50;10.32;;;;;;;12.54;100.00;101270.88;693894;28;4350;-44
2022/05/10 00:13:33;;;;;;;11.65;10.50;;;;;;;12.53;100.00;101277.88;696345;28;1142;-43
2022/05/10 00:13:53;;;;;;;11.47;10.37;;;;;;;12.52;100.00;101277.88;696280;28;989;-43
2022/05/10 00:14:14;;;;;;;11.40;10.30;;;;;;;12.51;100.00;101277.00;698603;28;1118;-43
2022/05/10 00:14:35;;;;;;;11.40;10.30;;;;;;;12.47;100.00;101270.00;697371;28;1079;-44
2022/05/10 00:14:55;;;;;;;11.48;10.40;;;;;;;12.45;100.00;101277.03;701147;28;1006;-45
2022/05/10 00:15:18;;;;;;;12.00;10.80;;;;;;;12.44;100.00;101276.13;701828;28;1067;-45
2022/05/10 00:15:41;;;;;;;12.07;10.88;;;;;;;12.42;100.00;101271.81;700393;28;1047;-45
2022/05/10 00:16:01;;;;;;;11.23;10.13;;;;;;;12.42;100.00;101275.28;699930;28;5159;-46
2022/05/10 00:16:22;;;;;;;11.00;10.00;;;;;;;12.43;100.00;101278.75;701375;28;1034;-43
2022/05/10 00:16:44;;;;;;;10.65;9.65;;;;;;;12.45;99.69;101274.41;700171;28;3815;-46
2022/05/10 00:17:05;;;;;;;10.82;9.82;;;;;;;12.45;99.32;101274.41;701525;28;1086;-46
2022/05/10 00:17:35;;;;;;;10.82;9.82;;;;;;;12.46;99.16;101278.78;701214;28;1085;-43
2022/05/10 00:17:56;;;;;;;10.95;9.85;;;;;;;12.51;98.10;101274.38;701288;28;1068;-44
2022/05/10 00:18:17;;;;;;;10.90;9.80;;;;;;;12.50;98.71;101275.28;701809;28;1122;-44
2022/05/10 00:18:38;;;;;;;10.98;9.88;;;;;;;12.49;99.76;101281.38;702464;28;1050;-43
2022/05/10 00:18:59;;;;;;;11.15;10.07;;;;;;;12.46;100.00;101270.91;700727;27;4422;-43
2022/05/10 00:19:22;;;;;;;10.83;9.83;;;;;;;12.44;100.00;101277.91;700891;28;987;-46
2022/05/10 00:19:42;;;;;;;10.93;9.90;;;;;;;12.41;100.00;101268.28;701487;28;1062;-44
2022/05/10 00:20:06;;;;;;;10.93;9.93;;;;;;;12.41;100.00;101276.16;701868;28;1057;-43
2022/05/10 00:20:27;;;;;;;11.55;10.38;;;;;;;12.41;100.00;101277.91;701870;28;1853;-43
2022/05/10 00:20:47;;;;;;;11.00;9.90;;;;;;;12.43;99.72;101273.53;701704;28;959;-43
2022/05/10 00:21:10;;;;;;;10.43;9.33;;;;;;;12.45;99.40;101274.41;700495;28;1267;-44
2022/05/10 00:21:30;;;;;;;10.48;9.23;;;;;;;12.51;97.80;101274.38;700925;28;1261;-44
2022/05/10 00:21:50;;;;;;;10.80;9.50;;;;;;;12.55;97.67;101276.09;700488;28;1352;-44
2022/05/10 00:22:11;;;;;;;10.60;9.60;;;;;;;12.55;98.51;101267.38;700947;28;4348;-43
2022/05/10 00:22:31;;;;;;;10.82;9.77;;;;;;;12.55;98.91;101270.88;700660;28;1077;-44
2022/05/10 00:22:52;;;;;;;11.40;10.20;;;;;;;12.52;99.54;101275.25;700558;28;1093;-43
2022/05/10 00:23:13;;;;;;;11.07;9.97;;;;;;;12.51;100.00;101271.75;700178;28;1173;-43
2022/05/10 00:23:33;;;;;;;10.73;9.67;;;;;;;12.50;99.81;101267.41;700844;28;1133;-44
2022/05/10 00:23:54;;;;;;;10.85;9.85;;;;;;;12.49;100.00;101268.28;701119;28;1041;-43
2022/05/10 00:24:14;;;;;;;11.17;10.07;;;;;;;12.49;100.00;101272.63;700973;28;1177;-43
2022/05/10 00:24:34;;;;;;;10.87;9.87;;;;;;;12.49;99.43;101270.00;701078;28;1062;-43
2022/05/10 00:24:55;;;;;;;11.03;9.93;;;;;;;12.50;99.59;101271.75;700992;28;4428;-42
2022/05/10 00:25:18;;;;;;;11.07;9.97;;;;;;;12.53;99.73;101277.88;700317;28;1082;-44
2022/05/10 00:25:38;;;;;;;10.40;9.43;;;;;;;12.51;99.79;101274.38;700880;28;1164;-43
2022/05/10 00:25:59;;;;;;;10.10;9.10;;;;;;;12.55;97.66;101272.63;700625;28;999;-45
2022/05/10 00:26:19;;;;;;;10.32;9.32;;;;;;;12.54;97.95;101268.25;700083;28;1110;-43
2022/05/10 00:26:40;;;;;;;10.30;9.30;;;;;;;12.51;99.40;101277.00;702164;28;1592;-44
2022/05/10 00:27:01;;;;;;;10.93;9.85;;;;;;;12.49;99.05;101272.63;700980;28;1708;-43
2022/05/10 00:27:23;;;;;;;10.57;9.48;;;;;;;12.48;99.38;101274.38;698190;28;1371;-44
2022/05/10 00:27:43;;;;;;;10.13;9.07;;;;;;;12.50;98.52;101270.03;698113;28;1633;-43
2022/05/10 00:28:05;;;;;;;10.53;9.53;;;;;;;12.51;98.37;101281.38;693189;28;4322;-43
2022/05/10 00:28:25;;;;;;;10.70;9.70;;;;;;;12.51;98.37;101276.13;691649;28;1005;-43
2022/05/10 00:28:46;;;;;;;10.37;9.27;;;;;;;12.53;98.33;101271.75;694118;28;1702;-43
2022/05/10 00:29:06;;;;;;;10.13;9.13;;;;;;;12.54;98.48;101269.09;696393;28;2045;-43
2022/05/10 00:29:27;;;;;;;10.73;9.73;;;;;;;12.51;99.43;101273.50;697673;28;1785;-43
2022/05/10 00:29:47;;;;;;;10.87;9.87;;;;;;;12.48;100.00;101269.16;695604;28;1669;-44
2022/05/10 00:30:08;;;;;;;11.30;10.20;;;;;;;12.49;99.71;101264.75;698125;28;1944;-43
2022/05/10 00:30:28;;;;;;;11.18;10.02;;;;;;;12.48;100.00;101269.16;699087;28;1291;-43
2022/05/10 00:30:49;;;;;;;11.20;9.95;;;;;;;12.48;100.00;101271.75;698506;28;1813;-43
2022/05/10 00:31:11;;;;;;;10.70;9.70;;;;;;;12.48;99.16;101271.75;696222;28;4388;-45
2022/05/10 00:31:32;;;;;;;10.60;9.50;;;;;;;12.53;99.70;101272.63;697601;28;1182;-44
2022/05/10 00:31:52;;;;;;;10.45;9.38;;;;;;;12.55;98.96;101270.88;700491;28;1107;-45
2022/05/10 00:32:12;;;;;;;11.07;9.60;;;;;;;12.52;99.58;101270.88;700751;28;1097;-44
2022/05/10 00:32:37;;;;;;;11.07;9.82;;;;;;;12.49;100.00;101270.91;701366;28;1125;-43
2022/05/10 00:32:57;;;;;;;10.85;9.75;;;;;;;12.47;100.00;101264.78;700999;28;922;-44
2022/05/10 00:33:23;;;;;;;10.85;9.85;;;;;;;12.47;100.00;101266.53;700917;28;1054;-43
2022/05/10 00:33:45;;;;;;;10.50;9.57;;;;;;;12.45;100.00;101269.16;701066;28;1058;-43
2022/05/10 00:34:05;;;;;;;11.20;10.10;;;;;;;12.43;100.00;101273.53;699929;28;4702;-44
2022/05/10 00:34:28;;;;;;;11.20;10.18;;;;;;;12.41;100.00;101263.03;701877;28;1224;-43
2022/05/10 00:34:49;;;;;;;10.60;9.60;;;;;;;12.40;100.00;101268.28;700840;28;1591;-43
2022/05/10 00:35:19;;;;;;;10.75;9.75;;;;;;;12.40;100.00;101271.78;701162;28;1275;-43
2022/05/10 00:35:39;;;;;;;10.23;9.23;;;;;;;12.38;100.00;101265.69;701542;28;1128;-43
2022/05/10 00:36:00;;;;;;;10.50;9.50;;;;;;;12.39;99.54;101267.44;701300;28;1287;-44
2022/05/10 00:36:23;;;;;;;11.10;10.00;;;;;;;12.36;100.00;101259.53;701013;28;1156;-43
2022/05/10 00:36:44;;;;;;;10.43;9.43;;;;;;;12.35;100.00;101264.81;699727;28;1130;-43
2022/05/10 00:37:04;;;;;;;10.30;9.30;;;;;;;12.36;100.00;101266.56;699375;28;4375;-43
2022/05/10 00:37:25;;;;;;;10.70;9.70;;;;;;;12.33;100.00;101269.19;701541;28;1158;-45
2022/05/10 00:37:48;;;;;;;10.32;9.32;;;;;;;12.35;100.00;101272.66;701620;28;1168;-43
2022/05/10 00:38:09;;;;;;;10.70;9.70;;;;;;;12.36;100.00;101266.56;696792;28;1294;-43
2022/05/10 00:38:33;;;;;;;11.32;10.23;;;;;;;12.35;100.00;101268.31;696877;28;1209;-43
2022/05/10 00:38:53;;;;;;;11.38;10.07;;;;;;;12.35;100.00;101268.31;696532;28;4647;-46
2022/05/10 00:39:14;;;;;;;10.68;9.63;;;;;;;12.38;100.00;101268.31;696900;28;1114;-43
2022/05/10 00:39:34;;;;;;;10.73;9.67;;;;;;;12.41;99.05;101270.03;695829;28;1189;-44
2022/05/10 00:39:55;;;;;;;11.05;9.27;;;;;;;12.41;99.79;101270.03;696216;28;4288;-42
2022/05/10 00:40:19;;;;;;;10.93;9.70;;;;;;;12.38;100.00;101267.44;701050;28;1473;-43
2022/05/10 00:40:39;;;;;;;10.88;9.82;;;;;;;12.37;100.00;101257.81;699932;28;1142;-43
2022/05/10 00:41:24;;;;;;;10.23;9.23;;;;;;;12.39;99.62;101267.44;701054;28;1041;-44
2022/05/10 00:41:56;;;;;;;11.55;10.40;;;;;;;12.35;100.00;101268.31;701143;28;1581;-44
2022/05/10 00:42:22;;;;;;;11.15;10.05;;;;;;;12.35;100.00;101262.19;699385;28;1165;-43
2022/05/10 00:42:57;;;;;;;10.52;9.52;;;;;;;12.38;99.28;101267.44;699610;28;1101;-43
2022/05/10 00:43:26;;;;;;;10.02;9.02;;;;;;;12.44;97.68;101264.78;699359;28;5127;-43
2022/05/10 00:43:52;;;;;;;10.70;9.65;;;;;;;12.48;98.11;101268.28;699595;28;1465;-43
2022/05/10 00:44:36;;;;;;;10.50;9.40;;;;;;;12.46;98.41;101272.66;700702;28;1106;-43
2022/05/10 00:45:03;;;;;;;10.30;9.40;;;;;;;12.43;99.74;101265.66;701034;28;1033;-43
2022/05/10 00:45:38;;;;;;;11.10;9.90;;;;;;;12.40;100.00;101270.91;699818;28;1061;-45
2022/05/10 00:46:05;;;;;;;10.93;9.82;;;;;;;12.42;99.00;101269.19;700505;27;4414;-44
2022/05/10 00:46:34;;;;;;;10.45;9.45;;;;;;;12.40;100.00;101270.91;701341;28;983;-43
2022/05/10 00:47:06;;;;;;;11.48;9.70;;;;;;;12.35;100.00;101267.41;701332;28;937;-43
2022/05/10 00:47:43;;;;;;;11.43;10.23;;;;;;;12.32;100.00;101267.44;701610;28;1089;-43
2022/05/10 00:48:30;;;;;;;10.63;9.63;;;;;;;12.33;100.00;101266.56;699647;28;1116;-43
2022/05/10 00:49:19;;;;;;;10.05;9.15;;;;;;;12.31;100.00;101269.19;700873;28;1113;-43
2022/05/10 00:49:58;;;;;;;11.00;10.00;;;;;;;12.30;100.00;101263.97;697860;28;4730;-43
2022/05/10 00:50:32;;;;;;;11.00;9.90;;;;;;;12.33;100.00;101258.69;701083;28;1033;-43
2022/05/10 00:51:27;;;;;;;10.10;9.10;;;;;;;12.36;100.00;101271.78;701176;28;1180;-43
2022/05/10 00:52:18;;;;;;;10.18;9.18;;;;;;;12.43;98.48;101268.28;687604;28;1199;-44
2022/05/10 00:52:41;;;;;;;10.27;9.27;;;;;;;12.50;97.77;101261.28;698094;28;4906;-44
2022/05/10 00:53:19;;;;;;;10.73;9.63;;;;;;;12.44;99.44;101262.16;698618;28;1169;-44
2022/05/10 00:53:57;;;;;;;10.65;9.63;;;;;;;12.45;99.40;101263.91;697725;28;1114;-43
2022/05/10 00:54:26;;;;;;;11.10;10.00;;;;;;;12.41;100.00;101257.78;697935;28;980;-43
2022/05/10 00:54:49;;;;;;;10.40;9.40;;;;;;;12.42;99.26;101263.94;700149;28;970;-43
2022/05/10 00:55:40;;;;;;;10.50;9.50;;;;;;;12.48;97.68;101268.28;700770;27;4892;-43
2022/05/10 00:56:09;;;;;;;10.27;9.23;;;;;;;12.47;97.93;101258.66;692260;28;1311;-44
2022/05/10 00:57:05;;;;;;;10.32;9.32;;;;;;;12.44;100.00;101262.16;700891;28;1279;-43
2022/05/10 00:57:34;;;;;;;10.75;9.75;;;;;;;12.40;99.70;101261.28;701142;28;1133;-44
2022/05/10 00:58:20;;;;;;;10.65;9.65;;;;;;;12.35;100.00;101259.56;701591;28;1005;-44
2022/05/10 00:58:54;;;;;;;11.13;10.13;;;;;;;12.34;99.38;101263.94;700967;28;4977;-43
2022/05/10 00:59:28;;;;;;;10.55;9.45;;;;;;;12.35;100.00;101260.44;701855;28;1064;-43
2022/05/10 00:59:59;;;;;;;11.00;10.00;;;;;;;12.33;99.84;101256.09;700126;28;1267;-45
2022/05/10 01:00:25;;;;;;;10.60;9.52;;;;;;;12.36;99.35;101258.69;701774;28;1042;-45
2022/05/10 01:00:48;;;;;;;10.98;9.88;;;;;;;12.32;100.00;101259.56;700157;28;1101;-42
2022/05/10 01:01:15;;;;;;;10.80;9.80;;;;;;;12.30;100.00;101258.72;699140;28;4501;-43
2022/05/10 01:01:37;;;;;;;10.85;9.85;;;;;;;12.25;100.00;101256.97;700978;28;1334;-43
2022/05/10 01:02:06;;;;;;;11.07;10.07;;;;;;;12.23;100.00;101256.09;700641;28;1116;-43
2022/05/10 01:02:58;;;;;;;11.25;10.23;;;;;;;12.18;100.00;101255.22;700471;28;1273;-43
2022/05/10 01:03:25;;;;;;;11.07;9.98;;;;;;;12.20;100.00;101252.63;701518;28;1856;-43
2022/05/10 01:03:57;;;;;;;10.15;9.25;;;;;;;12.25;100.00;101251.75;700288;28;1414;-43
2022/05/10 01:04:36;;;;;;;11.10;10.00;;;;;;;12.23;100.00;101252.63;699675;28;5063;-43
2022/05/10 01:05:08;;;;;;;10.80;9.77;;;;;;;12.21;100.00;101255.25;699493;28;900;-43
2022/05/10 01:05:42;;;;;;;10.63;9.63;;;;;;;12.26;99.80;101256.06;700522;28;1109;-43
2022/05/10 01:06:24;;;;;;;10.48;9.52;;;;;;;12.18;100.00;101252.59;700396;28;1210;-43
2022/05/10 01:07:00;;;;;;;11.23;10.15;;;;;;;12.18;100.00;101257.84;700167;28;1078;-44
2022/05/10 01:07:32;;;;;;;11.35;10.15;;;;;;;12.20;100.00;101255.25;700362;28;4802;-44
2022/05/10 01:08:11;;;;;;;10.30;9.40;;;;;;;12.23;99.74;101253.47;700805;28;1003;-43
2022/05/10 01:08:40;;;;;;;10.57;9.60;;;;;;;12.16;100.00;101245.63;698382;28;1277;-45
2022/05/10 01:09:12;;;;;;;12.70;10.23;;;;;;;12.14;100.00;101248.25;694717;28;1135;-43
2022/05/10 01:09:44;;;;;;;11.20;10.10;;;;;;;12.14;100.00;101247.38;695200;28;1436;-43
2022/05/10 01:10:10;;;;;;;10.93;9.82;;;;;;;12.13;100.00;101249.13;697243;28;4339;-43
2022/05/10 01:10:45;;;;;;;11.32;10.23;;;;;;;12.06;100.00;101243.03;700683;28;1086;-43
2022/05/10 01:11:22;;;;;;;11.30;10.23;;;;;;;12.03;100.00;101243.03;701379;28;1042;-43
2022/05/10 01:12:06;;;;;;;10.45;9.35;;;;;;;12.10;100.00;101249.13;699313;28;1069;-43
2022/05/10 01:12:42;;;;;;;10.90;9.80;;;;;;;12.07;100.00;101247.41;700543;28;1109;-44
2022/05/10 01:13:16;;;;;;;10.38;9.38;;;;;;;12.12;100.00;101246.53;698986;27;4271;-44
2022/05/10 01:13:41;;;;;;;10.35;9.43;;;;;;;12.15;99.85;101250.00;701438;28;911;-43
2022/05/10 01:14:11;;;;;;;10.60;9.57;;;;;;;12.19;98.94;101251.72;700371;28;1109;-44
2022/05/10 01:14:54;;;;;;;10.50;9.55;;;;;;;12.19;100.00;101249.09;700040;28;1831;-44
2022/05/10 01:15:23;;;;;;;11.65;10.48;;;;;;;12.16;100.00;101249.13;700511;28;1192;-43
2022/05/10 01:16:00;;;;;;;11.70;10.50;;;;;;;12.16;100.00;101249.13;700685;28;962;-43
2022/05/10 01:16:23;;;;;;;10.95;9.85;;;;;;;12.22;98.98;101246.47;699639;28;4942;-46
2022/05/10 01:16:43;;;;;;;10.70;9.60;;;;;;;12.25;99.46;101246.50;699264;28;1232;-43
2022/05/10 01:17:04;;;;;;;10.82;9.73;;;;;;;12.22;100.00;101254.34;700899;28;1169;-43
2022/05/10 01:17:24;;;;;;;10.90;9.80;;;;;;;12.22;100.00;101250.84;700197;28;1168;-44
2022/05/10 01:17:46;;;;;;;10.63;9.63;;;;;;;12.19;100.00;101245.63;700682;28;1082;-44
2022/05/10 01:18:07;;;;;;;11.15;10.05;;;;;;;12.18;100.00;101251.75;700952;28;1085;-43
2022/05/10 01:18:27;;;;;;;11.00;9.90;;;;;;;12.16;100.00;101246.50;700807;28;1282;-43
2022/05/10 01:18:50;;;;;;;11.00;9.90;;;;;;;12.17;100.00;101249.97;701856;28;1005;-43
2022/05/10 01:19:12;;;;;;;10.48;9.45;;;;;;;12.21;99.13;101251.72;700560;27;4297;-44
2022/05/10 01:19:32;;;;;;;10.68;9.70;;;;;;;12.23;99.27;101242.97;701427;28;1124;-44
2022/05/10 01:19:53;;;;;;;10.30;9.40;;;;;;;12.24;99.15;101243.88;700595;28;1059;-43
2022/05/10 01:20:18;;;;;;;10.43;9.52;;;;;;;12.26;98.97;101245.59;701445;28;740;-43
2022/05/10 01:20:44;;;;;;;10.52;9.52;;;;;;;12.30;98.57;101240.38;700439;28;1113;-43
2022/05/10 01:21:16;;;;;;;10.60;9.60;;;;;;;12.27;99.20;101243.88;700232;28;1073;-43
2022/05/10 01:21:59;;;;;;;10.65;9.65;;;;;;;12.23;100.00;101240.38;699780;28;1086;-43
2022/05/10 01:22:33;;;;;;;11.25;10.15;;;;;;;12.15;100.00;101242.13;699613;28;4850;-43
2022/05/10 01:23:02;;;;;;;10.85;9.75;;;;;;;12.12;100.00;101244.75;700893;28;1021;-43
2022/05/10 01:23:42;;;;;;;11.93;10.73;;;;;;;12.09;100.00;101237.78;699865;28;1077;-43
2022/05/10 01:24:50;;;;;;;11.02;10.02;;;;;;;12.09;100.00;101235.16;700673;28;1276;-44
2022/05/10 01:25:48;;;;;;;12.25;11.00;;;;;;;11.98;100.00;101238.69;686308;28;4491;-45
2022/05/10 01:26:23;;;;;;;11.40;10.30;;;;;;;12.00;100.00;101240.41;699360;28;1249;-43
2022/05/10 01:27:24;;;;;;;11.32;10.27;;;;;;;12.01;100.00;101234.28;699132;28;1269;-45
2022/05/10 01:27:47;;;;;;;11.55;10.45;;;;;;;11.95;100.00;101236.94;699322;28;1225;-45
2022/05/10 01:28:30;;;;;;;11.57;10.38;;;;;;;11.95;100.00;101238.66;700720;27;4293;-44
2022/05/10 01:28:55;;;;;;;12.15;10.90;;;;;;;11.91;100.00;101235.16;701479;28;1113;-43
2022/05/10 01:29:22;;;;;;;12.20;11.10;;;;;;;11.85;100.00;101238.66;700147;28;1506;-43
2022/05/10 01:29:51;;;;;;;11.88;10.77;;;;;;;11.86;100.00;101237.75;701369;28;1132;-42
2022/05/10 01:30:19;;;;;;;11.63;10.52;;;;;;;11.85;100.00;101236.03;701913;28;1153;-43
2022/05/10 01:30:40;;;;;;;12.13;11.02;;;;;;;11.84;100.00;101236.06;701468;28;1129;-43
2022/05/10 01:31:06;;;;;;;12.30;11.20;;;;;;;11.80;100.00;101234.31;700753;28;4445;-43
2022/05/10 01:33:44;;;;;;;12.07;10.90;;;;;;;11.80;100.00;101239.53;701318;28;1604;-43
2022/05/10 01:34:14;;;;;;;11.30;10.20;;;;;;;11.81;100.00;101234.31;700438;27;4452;-44
2022/05/10 01:34:34;;;;;;;12.18;10.98;;;;;;;11.78;100.00;101236.91;701286;28;1212;-44
2022/05/10 01:35:00;;;;;;;11.97;10.87;;;;;;;11.81;100.00;101236.03;700942;28;1492;-45
2022/05/10 01:35:25;;;;;;;11.75;10.68;;;;;;;11.81;100.00;101234.31;700944;28;1023;-44
2022/05/10 01:36:27;;;;;;;11.40;10.30;;;;;;;11.87;100.00;101233.41;700138;28;1181;-44
2022/05/10 01:36:59;;;;;;;11.48;10.38;;;;;;;11.80;100.00;101229.94;701780;28;1471;-42
2022/05/10 01:37:24;;;;;;;11.23;10.13;;;;;;;11.83;100.00;101239.53;701217;28;6694;-43
2022/05/10 01:37:51;;;;;;;11.13;10.07;;;;;;;11.79;100.00;101236.03;701385;28;1029;-44
2022/05/10 01:38:30;;;;;;;11.55;10.45;;;;;;;11.77;100.00;101235.19;701012;27;1277;-43
2022/05/10 01:38:50;;;;;;;11.00;9.88;;;;;;;11.75;100.00;101235.19;699646;28;1315;-43
2022/05/10 01:39:19;;;;;;;10.80;9.70;;;;;;;11.74;100.00;101243.00;700938;27;4960;-43
2022/05/10 01:39:52;;;;;;;11.73;9.52;;;;;;;11.71;100.00;101236.06;699983;28;1205;-43
2022/05/10 01:40:24;;;;;;;10.85;9.73;;;;;;;11.78;100.00;101233.41;699964;28;4393;-44
2022/05/10 01:40:49;;;;;;;10.75;9.65;;;;;;;11.82;100.00;101240.41;700932;28;1300;-43
2022/05/10 01:41:21;;;;;;;10.20;9.30;;;;;;;11.81;100.00;101233.41;700487;28;1189;-44
2022/05/10 01:41:52;;;;;;;10.00;9.10;;;;;;;11.84;100.00;101234.28;700581;28;1133;-45
2022/05/10 01:42:18;;;;;;;9.90;9.00;;;;;;;11.83;100.00;101227.28;700881;28;1208;-43
2022/05/10 01:42:52;;;;;;;10.40;9.40;;;;;;;11.83;100.00;101231.69;700415;28;1363;-43
2022/05/10 01:43:19;;;;;;;10.20;9.23;;;;;;;11.81;100.00;101236.91;700435;28;4488;-43
2022/05/10 01:43:47;;;;;;;10.52;9.52;;;;;;;11.83;100.00;101227.28;701392;28;1090;-43
2022/05/10 01:44:34;;;;;;;9.60;8.70;;;;;;;11.90;100.00;101229.03;700984;28;1122;-43
2022/05/10 01:45:06;;;;;;;10.75;9.65;;;;;;;11.85;100.00;101230.81;701430;28;1256;-43
2022/05/10 01:45:36;;;;;;;9.90;9.00;;;;;;;11.82;100.00;101233.41;701670;28;1126;-43
2022/05/10 01:46:17;;;;;;;10.60;9.60;;;;;;;11.80;100.00;101227.31;699790;27;4399;-43
2022/05/10 01:46:37;;;;;;;10.65;9.65;;;;;;;11.79;100.00;101225.56;700956;28;1296;-44
2022/05/10 01:47:06;;;;;;;10.30;9.30;;;;;;;11.84;100.00;101229.06;701595;28;1101;-43
2022/05/10 01:47:30;;;;;;;9.60;8.68;;;;;;;11.84;100.00;101223.81;698544;28;1161;-44
2022/05/10 01:47:57;;;;;;;10.30;9.20;;;;;;;11.87;100.00;101223.81;698355;28;1166;-43
2022/05/10 01:48:20;;;;;;;10.30;9.30;;;;;;;11.87;100.00;101222.94;695236;28;1373;-43
2022/05/10 01:48:45;;;;;;;10.48;9.48;;;;;;;11.83;100.00;101223.81;698707;28;1190;-43
2022/05/10 01:49:20;;;;;;;10.45;9.35;;;;;;;11.86;100.00;101231.66;696371;28;4405;-43
2022/05/10 01:49:50;;;;;;;9.95;8.93;;;;;;;11.88;100.00;101222.94;700040;28;1273;-44
2022/05/10 01:50:19;;;;;;;10.38;9.38;;;;;;;11.90;100.00;101223.78;696751;28;1987;-44
2022/05/10 01:50:50;;;;;;;9.85;8.95;;;;;;;11.92;100.00;101227.28;697384;28;1131;-43
2022/05/10 01:51:24;;;;;;;10.07;9.07;;;;;;;11.87;100.00;101226.41;693334;28;1127;-43
2022/05/10 01:51:52;;;;;;;10.52;9.52;;;;;;;11.84;100.00;101223.81;693018;28;1215;-43
2022/05/10 01:52:34;;;;;;;10.07;9.07;;;;;;;11.84;100.00;101234.28;697068;28;4423;-43
2022/05/10 01:53:14;;;;;;;10.15;9.15;;;;;;;11.85;100.00;101233.44;698134;28;1209;-43
2022/05/10 01:53:38;;;;;;;10.48;9.48;;;;;;;11.86;100.00;101224.66;701533;28;1172;-43
2022/05/10 01:53:59;;;;;;;10.80;9.70;;;;;;;11.82;100.00;101229.91;700135;28;1502;-44
2022/05/10 01:54:37;;;;;;;10.47;9.47;;;;;;;11.80;100.00;101222.06;701476;28;1130;-43
2022/05/10 01:55:00;;;;;;;10.18;9.18;;;;;;;11.85;100.00;101220.31;699693;27;4536;-43
2022/05/10 01:55:41;;;;;;;9.50;8.60;;;;;;;11.83;100.00;101222.06;701272;28;1144;-43
2022/05/10 01:56:06;;;;;;;10.38;9.40;;;;;;;11.81;100.00;101221.19;701371;28;1295;-44
2022/05/10 01:56:28;;;;;;;10.25;9.25;;;;;;;11.82;100.00;101220.31;700784;28;1223;-44
2022/05/10 01:56:49;;;;;;;10.27;9.27;;;;;;;11.82;100.00;101215.06;701540;28;1385;-43
2022/05/10 01:57:13;;;;;;;10.20;9.20;;;;;;;11.86;100.00;101218.56;702114;28;1136;-43
2022/05/10 01:57:38;;;;;;;10.05;9.05;;;;;;;11.90;100.00;101209.84;700549;28;1086;-44
2022/05/10 01:58:03;;;;;;;10.15;9.20;;;;;;;11.88;100.00;101215.06;699942;27;4278;-43
2022/05/10 01:58:26;;;;;;;10.18;9.18;;;;;;;11.83;100.00;101211.59;701901;28;931;-43
2022/05/10 01:58:47;;;;;;;10.90;9.80;;;;;;;11.80;100.00;101216.81;701068;28;934;-43
2022/05/10 01:59:11;;;;;;;10.77;9.75;;;;;;;11.75;100.00;101209.00;702048;28;1119;-44
2022/05/10 01:59:31;;;;;;;10.63;9.40;;;;;;;11.77;100.00;101208.97;701720;28;1451;-43
2022/05/10 01:59:59;;;;;;;9.80;8.83;;;;;;;11.77;100.00;101208.97;701469;28;911;-42
2022/05/10 02:00:23;;;;;;;9.45;8.55;;;;;;;11.84;99.61;101217.72;702783;28;1041;-44
2022/05/10 02:00:49;;;;;;;9.68;8.77;;;;;;;11.86;100.00;101211.56;700608;28;1272;-45
2022/05/10 02:01:22;;;;;;;9.73;8.73;;;;;;;11.84;100.00;101218.56;700555;28;4328;-43
2022/05/10 02:01:42;;;;;;;9.68;8.77;;;;;;;11.86;99.25;101215.94;699032;28;1380;-45
2022/05/10 02:02:05;;;;;;;9.60;8.70;;;;;;;11.85;100.00;101215.09;701879;28;871;-44
2022/05/10 02:02:28;;;;;;;10.60;9.60;;;;;;;11.83;100.00;101215.97;701155;28;1050;-45
2022/05/10 02:02:53;;;;;;;9.95;9.05;;;;;;;11.80;100.00;101216.81;701332;28;933;-43
2022/05/10 02:03:24;;;;;;;9.52;8.63;;;;;;;11.81;100.00;101213.34;701044;28;1086;-43
2022/05/10 02:04:06;;;;;;;10.18;9.18;;;;;;;11.83;99.69;101216.81;701472;28;1004;-43
2022/05/10 02:04:35;;;;;;;10.38;8.82;;;;;;;11.88;99.48;101214.19;699645;28;4942;-45
2022/05/10 02:04:59;;;;;;;10.10;9.00;;;;;;;11.87;99.46;101213.31;700304;28;1615;-43
2022/05/10 02:05:45;;;;;;;9.60;8.70;;;;;;;11.87;100.00;101213.31;698289;28;1467;-42
2022/05/10 02:06:13;;;;;;;10.30;9.30;;;;;;;11.84;100.00;101215.94;699988;28;1122;-44
2022/05/10 02:06:50;;;;;;;10.18;9.18;;;;;;;11.81;100.00;101215.97;700718;28;1242;-44
2022/05/10 02:07:17;;;;;;;9.77;8.77;;;;;;;11.79;100.00;101212.44;698080;28;4420;-43
2022/05/10 02:07:41;;;;;;;10.07;9.07;;;;;;;11.81;100.00;101212.44;700930;28;1149;-43
2022/05/10 02:08:18;;;;;;;10.13;9.13;;;;;;;11.80;100.00;101214.22;700281;28;1162;-43
2022/05/10 02:08:50;;;;;;;9.88;8.88;;;;;;;11.79;100.00;101217.69;700472;28;1095;-45
2022/05/10 02:09:28;;;;;;;9.48;8.57;;;;;;;11.80;100.00;101218.59;700974;28;3706;-44
2022/05/10 02:10:08;;;;;;;10.27;9.30;;;;;;;11.78;100.00;101213.31;700421;28;938;-43
2022/05/10 02:10:36;;;;;;;9.50;8.60;;;;;;;11.76;100.00;101210.72;700182;28;4755;-43